Terminal Aerodrome Forecast
Issued by NWS

Home | Current Version | Previous Version | Text Only | Print | Product List | Glossary On
Versions: 1 2 3 4 5 6 7 8 9 10 11 12 13 14 15 16 17 18 19 20
000
FTPQ31 PGUM 300800 AAA
TAFTNI
TAF AMD
PGWT 300855Z 3009/0106 30012KT 6SM -SHRA SCT015 BKN035 BKN100
     FM301000 27022G32KT 5SM -RA BR SCT015 BKN030
     FM301600 22018G28KT P6SM VCSH SCT015CB SCT050 BKN100=

USA.gov is the U.S. government's official web portal to all federal, state and local government web resources and services.